createdAt,value
2023-03-12T00:02:17.429Z,100777.19
2023-03-12T00:04:43.887Z,100773.53
2023-03-12T00:07:10.270Z,100776.81
2023-03-12T00:09:38.402Z,100777.13
2023-03-12T00:12:06.043Z,100774.66
2023-03-12T00:14:33.030Z,100772.63
2023-03-12T00:16:59.541Z,100763.44
2023-03-12T00:19:26.031Z,100773.84
2023-03-12T00:21:52.555Z,100771.69
2023-03-12T00:24:19.203Z,100761.13
2023-03-12T00:26:45.567Z,100765.66
2023-03-12T00:29:11.978Z,100760.00
2023-03-12T00:31:38.403Z,100757.72
2023-03-12T00:34:04.896Z,100756.09
2023-03-12T00:36:32.801Z,100757.59
2023-03-12T00:39:00.982Z,100759.38
2023-03-12T00:41:28.519Z,100754.19
2023-03-12T00:43:54.893Z,100744.63
2023-03-12T00:46:21.700Z,100738.88
2023-03-12T00:48:48.198Z,100738.88
2023-03-12T00:51:14.726Z,100736.97
2023-03-12T00:53:41.134Z,100727.28
2023-03-12T00:56:07.637Z,100733.31
2023-03-12T00:58:34.039Z,100723.31
2023-03-12T01:01:00.718Z,100732.09
2023-03-12T01:03:27.701Z,100728.50
2023-03-12T01:05:56.935Z,100722.50
2023-03-12T01:08:23.925Z,100717.03
2023-03-12T01:10:50.780Z,100724.16
2023-03-12T01:13:17.426Z,100720.59
2023-03-12T01:15:43.839Z,100723.31
2023-03-12T01:18:10.301Z,100717.88
2023-03-12T01:20:36.923Z,100719.25
2023-03-12T01:23:03.720Z,100719.09
2023-03-12T01:25:30.148Z,100715.69
2023-03-12T01:27:56.599Z,100709.00
2023-03-12T01:30:23.682Z,100709.44
2023-03-12T01:32:51.984Z,100712.16
2023-03-12T01:35:18.543Z,100708.34
2023-03-12T01:37:44.973Z,100700.09
2023-03-12T01:40:18.895Z,100703.94
2023-03-12T01:43:11.887Z,100696.41
2023-03-12T01:46:05.887Z,100693.53
2023-03-12T01:48:39.674Z,100698.06
2023-03-12T01:51:07.490Z,100686.97
2023-03-12T01:53:34.487Z,100675.19
2023-03-12T01:56:01.899Z,100677.41
2023-03-12T01:58:32.644Z,100670.13
2023-03-12T02:00:59.590Z,100680.69
2023-03-12T02:03:26.117Z,100678.50
2023-03-12T02:05:57.982Z,100681.91
2023-03-12T02:08:27.246Z,100676.31
2023-03-12T02:10:53.772Z,100690.09
2023-03-12T02:13:20.374Z,100685.06
2023-03-12T02:15:47.056Z,100668.63
2023-03-12T02:18:18.000Z,100664.78
2023-03-12T02:20:52.042Z,100660.03
2023-03-12T02:23:52.098Z,100649.34
2023-03-12T02:26:20.016Z,100652.09
2023-03-12T02:28:47.353Z,100659.19
2023-03-12T02:31:18.205Z,100660.97
2023-03-12T02:33:44.584Z,100662.19
2023-03-12T02:36:11.100Z,100657.69
2023-03-12T02:38:46.969Z,100657.13
2023-03-12T02:41:23.956Z,100658.66
2023-03-12T02:44:13.374Z,100659.06
2023-03-12T02:46:49.333Z,100656.19
2023-03-12T02:49:16.896Z,100661.41
2023-03-12T02:51:44.915Z,100649.91
2023-03-12T02:54:12.571Z,100647.16
2023-03-12T02:56:40.034Z,100648.69
2023-03-12T02:59:08.039Z,100637.84
2023-03-12T03:01:34.920Z,100633.63
2023-03-12T03:04:03.131Z,100633.88
2023-03-12T03:06:29.933Z,100614.47
2023-03-12T03:08:56.449Z,100620.75
2023-03-12T03:11:24.649Z,100619.94
2023-03-12T03:13:52.251Z,100617.47
2023-03-12T03:16:18.920Z,100618.16
2023-03-12T03:18:45.378Z,100620.19
2023-03-12T03:21:16.432Z,100617.06
2023-03-12T03:23:45.448Z,100612.00
2023-03-12T03:26:11.921Z,100603.09
2023-03-12T03:28:38.279Z,100605.84
2023-03-12T03:31:05.076Z,100599.56
2023-03-12T03:33:34.559Z,100604.88
2023-03-12T03:36:02.189Z,100601.75
2023-03-12T03:38:30.663Z,100607.34
2023-03-12T03:40:57.755Z,100605.69
2023-03-12T03:43:24.875Z,100605.97
2023-03-12T03:46:05.715Z,100604.34
2023-03-12T03:48:32.931Z,100592.97
2023-03-12T03:51:04.151Z,100600.50
2023-03-12T03:53:31.527Z,100600.38
2023-03-12T03:55:58.125Z,100599.13
2023-03-12T03:58:24.573Z,100604.19
2023-03-12T04:00:51.051Z,100604.75
2023-03-12T04:03:17.474Z,100594.50
2023-03-12T04:05:45.185Z,100597.50
2023-03-12T04:08:13.268Z,100590.66
2023-03-12T04:10:40.081Z,100595.28
2023-03-12T04:13:06.610Z,100596.66
2023-03-12T04:15:33.010Z,100591.91
2023-03-12T04:17:59.479Z,100590.78
2023-03-12T04:20:25.893Z,100600.63
2023-03-12T04:22:52.270Z,100582.16
2023-03-12T04:25:18.788Z,100581.75
2023-03-12T04:27:45.166Z,100578.44
2023-03-12T04:30:12.056Z,100583.53
2023-03-12T04:32:38.501Z,100579.97
2023-03-12T04:35:05.148Z,100571.75
2023-03-12T04:37:33.877Z,100570.94
2023-03-12T04:40:02.433Z,100566.81
2023-03-12T04:42:28.867Z,100566.94
2023-03-12T04:44:55.368Z,100566.25
2023-03-12T04:47:21.721Z,100571.34
2023-03-12T04:49:48.203Z,100566.94
2023-03-12T04:52:14.680Z,100572.81
2023-03-12T04:54:41.024Z,100563.66
2023-03-12T04:57:07.450Z,100567.09
2023-03-12T04:59:33.940Z,100565.84
2023-03-12T05:02:00.318Z,100554.50
2023-03-12T05:04:26.983Z,100554.78
2023-03-12T05:06:53.349Z,100551.22
2023-03-12T05:09:19.782Z,100547.94
2023-03-12T05:11:46.319Z,100534.22
2023-03-12T05:14:12.851Z,100521.09
2023-03-12T05:16:39.325Z,100518.34
2023-03-12T05:19:06.190Z,100531.50
2023-03-12T05:21:33.200Z,100533.00
2023-03-12T05:23:59.847Z,100512.19
2023-03-12T05:26:28.875Z,100513.03
2023-03-12T05:28:55.829Z,100505.66
2023-03-12T05:31:22.270Z,100503.88
2023-03-12T05:33:51.652Z,100507.44
2023-03-12T05:36:19.744Z,100503.75
2023-03-12T05:38:46.577Z,100502.41
2023-03-12T05:41:25.842Z,100500.88
2023-03-12T05:43:54.286Z,100493.06
2023-03-12T05:46:20.963Z,100492.41
2023-03-12T05:48:47.627Z,100493.75
2023-03-12T05:51:14.366Z,100490.47
2023-03-12T05:53:40.748Z,100485.13
2023-03-12T05:56:11.473Z,100483.22
2023-03-12T05:58:38.474Z,100482.94
2023-03-12T06:01:22.324Z,100463.94
2023-03-12T06:03:48.765Z,100455.72
2023-03-12T06:06:15.854Z,100455.59
2023-03-12T06:08:43.060Z,100451.75
2023-03-12T06:11:09.644Z,100434.88
2023-03-12T06:13:36.490Z,100436.28
2023-03-12T06:16:04.495Z,100440.38
2023-03-12T06:18:32.968Z,100453.69
2023-03-12T06:21:16.932Z,100455.44
2023-03-12T06:23:44.374Z,100452.84
2023-03-12T06:26:12.105Z,100446.16
2023-03-12T06:28:38.857Z,100444.00
2023-03-12T06:31:06.377Z,100460.81
2023-03-12T06:33:33.684Z,100453.44
2023-03-12T06:36:02.609Z,100459.16
2023-03-12T06:38:29.378Z,100457.13
2023-03-12T06:41:00.458Z,100462.72
2023-03-12T06:43:29.412Z,100466.44
2023-03-12T06:45:57.317Z,100464.94
2023-03-12T06:48:24.704Z,100456.31
2023-03-12T06:50:51.645Z,100462.72
2023-03-12T06:53:18.959Z,100463.81
2023-03-12T06:55:45.977Z,100456.03
2023-03-12T06:58:12.684Z,100465.47
2023-03-12T07:00:39.150Z,100466.97
2023-03-12T07:03:05.604Z,100474.63
2023-03-12T07:05:32.019Z,100456.84
2023-03-12T07:07:58.388Z,100450.56
2023-03-12T07:10:28.069Z,100465.16
2023-03-12T07:12:55.303Z,100469.97
2023-03-12T07:15:22.518Z,100473.94
2023-03-12T07:17:49.021Z,100462.88
2023-03-12T07:20:15.402Z,100454.34
2023-03-12T07:22:41.760Z,100435.06
2023-03-12T07:25:09.544Z,100429.84
2023-03-12T07:27:35.904Z,100433.66
2023-03-12T07:30:02.430Z,100437.25
2023-03-12T07:32:28.955Z,100441.47
2023-03-12T07:34:55.292Z,100436.66
2023-03-12T07:37:21.838Z,100445.81
2023-03-12T07:39:52.153Z,100446.09
2023-03-12T07:42:18.611Z,100439.53
2023-03-12T07:44:44.972Z,100438.03
2023-03-12T07:47:23.092Z,100448.69
2023-03-12T07:49:50.770Z,100439.38
2023-03-12T07:52:18.244Z,100443.31
2023-03-12T07:54:44.836Z,100437.44
2023-03-12T07:57:11.512Z,100449.63
2023-03-12T07:59:38.035Z,100439.06
2023-03-12T08:02:04.594Z,100440.72
2023-03-12T08:04:31.180Z,100444.50
2023-03-12T08:06:57.611Z,100440.16
2023-03-12T08:09:23.966Z,100450.00
2023-03-12T08:11:50.409Z,100447.16
2023-03-12T08:14:16.842Z,100451.38
2023-03-12T08:16:43.321Z,100451.38
2023-03-12T08:19:09.778Z,100450.38
2023-03-12T08:21:36.146Z,100452.16
2023-03-12T08:24:02.610Z,100453.66
2023-03-12T08:26:29.037Z,100448.47
2023-03-12T08:28:56.785Z,100453.66
2023-03-12T08:31:23.336Z,100455.00
2023-03-12T08:33:49.707Z,100451.13
2023-03-12T08:36:16.074Z,100449.94
2023-03-12T08:38:42.485Z,100448.94
2023-03-12T08:41:08.917Z,100444.59
2023-03-12T08:43:35.303Z,100429.63
2023-03-12T08:46:03.161Z,100441.97
2023-03-12T08:48:31.409Z,100439.81
2023-03-12T08:50:59.922Z,100441.97
2023-03-12T08:53:27.561Z,100428.88
2023-03-12T08:55:55.058Z,100436.94
2023-03-12T08:58:23.084Z,100426.38
2023-03-12T09:00:49.530Z,100435.28
2023-03-12T09:03:16.598Z,100431.16
2023-03-12T09:05:43.896Z,100440.13
2023-03-12T09:08:11.604Z,100432.16
2023-03-12T09:10:38.974Z,100430.22
2023-03-12T09:13:06.264Z,100432.00
2023-03-12T09:15:33.486Z,100440.31
2023-03-12T09:17:59.872Z,100437.63
2023-03-12T09:20:26.351Z,100444.72
2023-03-12T09:22:52.842Z,100444.31
2023-03-12T09:25:19.453Z,100440.28
2023-03-12T09:27:48.015Z,100443.31
2023-03-12T09:30:20.562Z,100437.97
2023-03-12T09:32:47.331Z,100435.91
2023-03-12T09:35:15.873Z,100438.53
2023-03-12T09:37:42.727Z,100446.16
2023-03-12T09:40:17.968Z,100445.34
2023-03-12T09:42:47.870Z,100446.16
2023-03-12T09:45:22.239Z,100449.75
2023-03-12T09:47:54.135Z,100441.28
2023-03-12T09:50:28.323Z,100438.44
2023-03-12T09:52:59.623Z,100456.78
2023-03-12T09:55:28.700Z,100458.59
2023-03-12T09:57:56.345Z,100457.34
2023-03-12T10:00:27.010Z,100465.03
2023-03-12T10:03:09.890Z,100463.88
2023-03-12T10:06:11.243Z,100463.63
2023-03-12T10:09:02.817Z,100451.38
2023-03-12T10:11:37.233Z,100451.31
2023-03-12T10:14:24.141Z,100454.75
2023-03-12T10:17:03.163Z,100456.09
2023-03-12T10:19:54.187Z,100446.56
2023-03-12T10:22:42.159Z,100466.69
2023-03-12T10:25:08.484Z,100456.13
2023-03-12T10:27:37.171Z,100456.41
2023-03-12T10:30:15.020Z,100460.94
2023-03-12T10:32:46.717Z,100464.53
2023-03-12T10:35:21.524Z,100461.63
2023-03-12T10:37:56.131Z,100452.53
2023-03-12T10:40:25.484Z,100465.56
2023-03-12T10:42:52.793Z,100467.59
2023-03-12T10:45:34.966Z,100468.34
2023-03-12T10:48:11.599Z,100474.00
2023-03-12T10:50:40.097Z,100464.53
2023-03-12T10:53:29.621Z,100475.38
2023-03-12T10:56:01.793Z,100469.16
2023-03-12T10:58:33.749Z,100465.63
2023-03-12T11:01:02.287Z,100469.72
2023-03-12T11:03:29.761Z,100478.38
2023-03-12T11:06:02.250Z,100474.22
2023-03-12T11:08:35.257Z,100475.81
2023-03-12T11:11:03.666Z,100472.03
2023-03-12T11:13:39.077Z,100471.56
2023-03-12T11:16:17.937Z,100471.78
2023-03-12T11:19:01.425Z,100467.06
2023-03-12T11:21:29.094Z,100468.31
2023-03-12T11:23:58.275Z,100462.97
2023-03-12T11:26:31.873Z,100462.38
2023-03-12T11:29:10.932Z,100460.94
2023-03-12T11:31:57.983Z,100453.91
2023-03-12T11:34:31.207Z,100458.22
2023-03-12T11:37:07.610Z,100455.81
2023-03-12T11:39:42.122Z,100449.59
2023-03-12T11:42:36.375Z,100450.78
2023-03-12T11:45:04.061Z,100453.56
2023-03-12T11:47:49.482Z,100457.50
2023-03-12T11:50:36.651Z,100453.25
2023-03-12T11:53:14.290Z,100447.56
2023-03-12T11:56:05.561Z,100459.19
2023-03-12T11:58:50.206Z,100458.38
2023-03-12T12:01:51.126Z,100454.34
2023-03-12T12:04:29.963Z,100454.81
2023-03-12T12:07:24.528Z,100448.00
2023-03-12T12:09:59.048Z,100456.84
2023-03-12T12:12:43.784Z,100445.72
2023-03-12T12:15:35.246Z,100446.25
2023-03-12T12:18:36.092Z,100441.84
2023-03-12T12:21:19.769Z,100440.53
2023-03-12T12:23:58.505Z,100437.94
2023-03-12T12:26:37.842Z,100445.47
2023-03-12T12:29:12.256Z,100440.22
2023-03-12T12:31:54.123Z,100429.63
2023-03-12T12:34:31.502Z,100449.88
2023-03-12T12:37:26.015Z,100435.97
2023-03-12T12:40:21.046Z,100436.94
2023-03-12T12:42:55.251Z,100422.84
2023-03-12T12:45:25.452Z,100427.38
2023-03-12T12:48:11.564Z,100411.28
2023-03-12T12:50:39.997Z,100413.31
2023-03-12T12:53:21.345Z,100421.78
2023-03-12T12:56:25.919Z,100404.03
2023-03-12T12:59:34.011Z,100395.72
2023-03-12T13:02:03.313Z,100394.00
2023-03-12T13:04:38.793Z,100389.06
2023-03-12T13:07:20.597Z,100386.34
2023-03-12T13:09:52.957Z,100385.72
2023-03-12T13:12:34.763Z,100382.81
2023-03-12T13:15:02.783Z,100386.25
2023-03-12T13:17:30.895Z,100377.47
2023-03-12T13:20:13.451Z,100377.84
2023-03-12T13:22:58.159Z,100374.31
2023-03-12T13:25:29.554Z,100364.44
2023-03-12T13:28:16.021Z,100354.75
2023-03-12T13:30:48.793Z,100344.88
2023-03-12T13:33:18.355Z,100350.13
2023-03-12T13:36:03.945Z,100353.66
2023-03-12T13:38:57.868Z,100354.72
2023-03-12T13:41:46.879Z,100357.25
2023-03-12T13:44:38.447Z,100349.72
2023-03-12T13:47:10.896Z,100344.41
2023-03-12T13:50:00.053Z,100336.59
2023-03-12T13:53:02.000Z,100338.69
2023-03-12T13:55:30.798Z,100342.00
2023-03-12T13:58:16.781Z,100331.19
2023-03-12T14:00:49.383Z,100326.88
2023-03-12T14:03:26.245Z,100318.22
2023-03-12T14:06:07.120Z,100328.34
2023-03-12T14:09:03.438Z,100328.59
2023-03-12T14:12:07.510Z,100332.63
2023-03-12T14:15:04.454Z,100321.69
2023-03-12T14:17:34.182Z,100315.75
2023-03-12T14:20:04.550Z,100320.66
2023-03-12T14:22:37.491Z,100317.88
2023-03-12T14:25:14.876Z,100323.41
2023-03-12T14:27:44.612Z,100325.63
2023-03-12T14:30:23.385Z,100330.31
2023-03-12T14:32:54.894Z,100331.59
2023-03-12T14:35:47.231Z,100336.09
2023-03-12T14:38:20.277Z,100339.63
2023-03-12T14:41:02.050Z,100335.69
2023-03-12T14:43:31.023Z,100344.19
2023-03-12T14:46:03.659Z,100354.47
2023-03-12T14:48:36.279Z,100356.94
2023-03-12T14:51:05.578Z,100360.66
2023-03-12T14:53:37.698Z,100362.84
2023-03-12T14:56:13.235Z,100355.94
2023-03-12T14:58:48.166Z,100363.03
2023-03-12T15:01:19.757Z,100372.56
2023-03-12T15:03:50.116Z,100364.25
2023-03-12T15:06:51.647Z,100366.53
2023-03-12T15:09:22.272Z,100373.38
2023-03-12T15:11:58.638Z,100376.66
2023-03-12T15:14:28.283Z,100372.00
2023-03-12T15:16:55.998Z,100373.44
2023-03-12T15:19:31.291Z,100364.16
2023-03-12T15:21:58.487Z,100370.03
2023-03-12T15:24:25.825Z,100382.00
2023-03-12T15:26:52.239Z,100375.09
2023-03-12T15:29:27.358Z,100368.63
2023-03-12T15:31:59.238Z,100370.44
2023-03-12T15:34:39.273Z,100364.97
2023-03-12T15:37:38.647Z,100376.50
2023-03-12T15:40:20.880Z,100366.75
2023-03-12T15:42:48.695Z,100364.88
2023-03-12T15:45:26.280Z,100364.03
2023-03-12T15:47:54.425Z,100374.94
2023-03-12T15:50:31.793Z,100377.16
2023-03-12T15:53:07.106Z,100379.59
2023-03-12T15:55:35.681Z,100394.00
2023-03-12T15:58:02.976Z,100395.38
2023-03-12T16:00:29.416Z,100382.06
2023-03-12T16:03:02.439Z,100394.25
2023-03-12T16:05:35.404Z,100396.50
2023-03-12T16:08:12.782Z,100385.97
2023-03-12T16:10:39.373Z,100388.34
2023-03-12T16:13:05.815Z,100392.81
2023-03-12T16:15:36.341Z,100397.88
2023-03-12T16:18:02.917Z,100388.09
2023-03-12T16:20:29.645Z,100387.97
2023-03-12T16:22:56.278Z,100405.78
2023-03-12T16:25:23.732Z,100388.72
2023-03-12T16:27:54.738Z,100405.16
2023-03-12T16:30:27.236Z,100413.66
2023-03-12T16:32:53.769Z,100409.53
2023-03-12T16:35:20.944Z,100402.81
2023-03-12T16:37:47.485Z,100402.06
2023-03-12T16:40:24.021Z,100412.38
2023-03-12T16:43:02.425Z,100398.53
2023-03-12T16:45:30.242Z,100414.75
2023-03-12T16:48:02.746Z,100414.91
2023-03-12T16:50:29.470Z,100419.72
2023-03-12T16:52:56.646Z,100418.88
2023-03-12T16:55:27.525Z,100410.41
2023-03-12T16:58:00.310Z,100399.47
2023-03-12T17:00:32.960Z,100404.28
2023-03-12T17:02:59.496Z,100394.16
2023-03-12T17:05:28.933Z,100393.69
2023-03-12T17:07:56.261Z,100394.28
2023-03-12T17:10:24.234Z,100404.13
2023-03-12T17:12:51.691Z,100404.53
2023-03-12T17:15:25.884Z,100398.84
2023-03-12T17:17:54.778Z,100405.72
2023-03-12T17:20:23.638Z,100390.94
2023-03-12T17:22:50.029Z,100406.09
2023-03-12T17:25:29.340Z,100391.88
2023-03-12T17:27:59.115Z,100399.97
2023-03-12T17:30:27.388Z,100406.47
2023-03-12T17:32:59.981Z,100401.22
2023-03-12T17:35:26.410Z,100410.22
2023-03-12T17:37:52.789Z,100417.31
2023-03-12T17:40:19.331Z,100419.50
2023-03-12T17:42:45.751Z,100419.09
2023-03-12T17:45:12.154Z,100426.56
2023-03-12T17:47:38.614Z,100435.28
2023-03-12T17:50:06.563Z,100441.81
2023-03-12T17:52:33.901Z,100445.19
2023-03-12T17:55:01.112Z,100446.19
2023-03-12T17:57:28.022Z,100439.09
2023-03-12T17:59:54.394Z,100440.91
2023-03-12T18:02:21.304Z,100449.63
2023-03-12T18:04:47.771Z,100441.47
2023-03-12T18:07:14.389Z,100442.28
2023-03-12T18:09:40.805Z,100453.00
2023-03-12T18:12:07.559Z,100454.19
2023-03-12T18:14:34.030Z,100449.28
2023-03-12T18:17:00.417Z,100450.66
2023-03-12T18:19:30.488Z,100447.56
2023-03-12T18:21:56.931Z,100443.75
2023-03-12T18:24:23.294Z,100442.84
2023-03-12T18:26:51.506Z,100441.66
2023-03-12T18:29:18.072Z,100441.78
2023-03-12T18:31:44.501Z,100445.47
2023-03-12T18:34:10.931Z,100449.00
2023-03-12T18:36:37.327Z,100451.19
2023-03-12T18:39:04.874Z,100455.19
2023-03-12T18:41:32.779Z,100457.56
2023-03-12T18:44:00.285Z,100454.38
2023-03-12T18:46:27.139Z,100451.06
2023-03-12T18:48:53.779Z,100446.84
2023-03-12T18:51:20.347Z,100449.84
2023-03-12T18:53:46.817Z,100463.25
2023-03-12T18:56:13.638Z,100456.19
2023-03-12T18:58:40.003Z,100450.56
2023-03-12T19:01:06.416Z,100447.94
2023-03-12T19:03:36.117Z,100445.13
2023-03-12T19:06:03.692Z,100438.06
2023-03-12T19:08:30.142Z,100438.28
2023-03-12T19:10:56.532Z,100429.75
2023-03-12T19:13:23.240Z,100434.13
2023-03-12T19:15:49.699Z,100433.97
2023-03-12T19:18:16.150Z,100432.88
2023-03-12T19:20:42.531Z,100441.78
2023-03-12T19:23:09.246Z,100434.88
2023-03-12T19:25:35.662Z,100435.72
2023-03-12T19:28:02.037Z,100440.16
2023-03-12T19:30:30.549Z,100423.63
2023-03-12T19:32:56.993Z,100422.56
2023-03-12T19:35:23.455Z,100416.88
2023-03-12T19:37:49.793Z,100417.84
2023-03-12T19:40:16.349Z,100415.22
2023-03-12T19:42:42.740Z,100422.69
2023-03-12T19:45:10.190Z,100424.47
2023-03-12T19:47:36.676Z,100412.22
2023-03-12T19:50:03.351Z,100411.13
2023-03-12T19:52:29.964Z,100405.88
2023-03-12T19:55:04.338Z,100408.09
2023-03-12T19:57:31.965Z,100409.75
2023-03-12T19:59:58.851Z,100395.81
2023-03-12T20:02:25.996Z,100385.31
2023-03-12T20:04:52.584Z,100394.81
2023-03-12T20:07:19.012Z,100389.34
2023-03-12T20:09:45.562Z,100387.53
2023-03-12T20:12:12.072Z,100378.41
2023-03-12T20:14:39.845Z,100386.34
2023-03-12T20:17:07.774Z,100375.56
2023-03-12T20:19:34.170Z,100374.22
2023-03-12T20:22:00.598Z,100372.94
2023-03-12T20:24:26.996Z,100363.00
2023-03-12T20:26:53.406Z,100368.28
2023-03-12T20:29:19.757Z,100369.69
2023-03-12T20:31:46.221Z,100368.06
2023-03-12T20:34:12.725Z,100359.16
2023-03-12T20:36:39.103Z,100350.84
2023-03-12T20:39:05.549Z,100352.28
2023-03-12T20:41:33.102Z,100350.66
2023-03-12T20:43:59.843Z,100346.22
2023-03-12T20:46:26.561Z,100347.84
2023-03-12T20:48:54.993Z,100346.78
2023-03-12T20:51:22.691Z,100344.53
2023-03-12T20:53:49.068Z,100340.47
2023-03-12T20:56:15.490Z,100332.13
2023-03-12T20:58:41.994Z,100330.50
2023-03-12T21:01:08.541Z,100337.56
2023-03-12T21:03:34.919Z,100335.94
2023-03-12T21:06:02.521Z,100320.59
2023-03-12T21:08:29.894Z,100318.81
2023-03-12T21:10:56.595Z,100305.66
2023-03-12T21:13:23.881Z,100309.63
2023-03-12T21:15:50.745Z,100300.50
2023-03-12T21:18:17.817Z,100306.78
2023-03-12T21:20:44.515Z,100291.00
2023-03-12T21:23:11.615Z,100307.75
2023-03-12T21:25:40.077Z,100296.41
2023-03-12T21:28:08.560Z,100299.25
2023-03-12T21:30:35.309Z,100295.38
2023-03-12T21:33:03.750Z,100295.00
2023-03-12T21:35:30.170Z,100285.88
2023-03-12T21:37:56.742Z,100288.66
2023-03-12T21:40:23.725Z,100288.22
2023-03-12T21:42:50.537Z,100283.97
2023-03-12T21:45:17.023Z,100284.34
2023-03-12T21:47:43.502Z,100281.09
2023-03-12T21:50:10.882Z,100280.28
2023-03-12T21:52:42.913Z,100272.59
2023-03-12T21:55:10.347Z,100269.31
2023-03-12T21:57:36.761Z,100271.72
2023-03-12T22:00:04.352Z,100271.94
2023-03-12T22:02:31.606Z,100269.31
2023-03-12T22:05:01.195Z,100276.41
2023-03-12T22:07:30.269Z,100265.63
2023-03-12T22:09:57.024Z,100272.88
2023-03-12T22:12:23.430Z,100266.44
2023-03-12T22:14:49.773Z,100262.56
2023-03-12T22:17:17.069Z,100259.13
2023-03-12T22:19:43.512Z,100261.75
2023-03-12T22:22:11.302Z,100252.22
2023-03-12T22:24:37.719Z,100244.81
2023-03-12T22:27:07.219Z,100233.03
2023-03-12T22:29:34.658Z,100237.47
2023-03-12T22:32:01.198Z,100238.91
2023-03-12T22:34:29.410Z,100228.41
2023-03-12T22:36:55.817Z,100225.78
2023-03-12T22:39:22.317Z,100213.44
2023-03-12T22:41:53.504Z,100214.44
2023-03-12T22:44:19.959Z,100214.25
2023-03-12T22:46:46.456Z,100202.13
2023-03-12T22:49:12.925Z,100197.09
2023-03-12T22:51:39.305Z,100190.25
2023-03-12T22:54:05.785Z,100185.97
2023-03-12T22:56:32.554Z,100180.56
2023-03-12T22:58:58.976Z,100172.47
2023-03-12T23:01:25.584Z,100164.59
2023-03-12T23:03:52.024Z,100170.03
2023-03-12T23:06:21.277Z,100163.41
2023-03-12T23:08:48.259Z,100154.44
2023-03-12T23:11:15.326Z,100148.41
2023-03-12T23:13:44.373Z,100141.69
2023-03-12T23:16:13.827Z,100136.00
2023-03-12T23:18:40.750Z,100131.56
2023-03-12T23:21:10.557Z,100122.06
2023-03-12T23:23:39.463Z,100114.81
2023-03-12T23:26:06.419Z,100114.81
2023-03-12T23:28:32.848Z,100097.41
2023-03-12T23:31:02.282Z,100091.78
2023-03-12T23:33:29.837Z,100094.00
2023-03-12T23:36:00.527Z,100093.38
2023-03-12T23:38:27.817Z,100082.25
2023-03-12T23:41:02.989Z,100075.63
2023-03-12T23:43:29.285Z,100081.06
2023-03-12T23:45:57.560Z,100082.31
2023-03-12T23:48:25.427Z,100078.50
2023-03-12T23:50:51.822Z,100066.78
2023-03-12T23:53:18.276Z,100061.53
2023-03-12T23:55:54.994Z,100065.44
2023-03-12T23:58:21.602Z,100053.50
